Time;durP1;ratioP1;P1;durP2;ratioP2;P2;SDS_P1;SDS_P2;PMS_P1;PMS_P2;Temp;Humidity;BMP_temperature;BMP_pressure;BME280_temperature;BME280_humidity;BME280_pressure;Samples;Min_cycle;Max_cycle;Signal;HPM_P1;HPM_P2
2021/09/30 00:00:00;;;;;;;7.07;3.92;;;6.10;99.90;;;;;;4391502;32;20465;-65
2021/09/30 00:02:26;;;;;;;6.28;4.00;;;6.10;99.90;;;;;;4392053;32;20154;-66
2021/09/30 00:04:53;;;;;;;7.50;3.62;;;6.10;99.90;;;;;;4379208;32;20066;-65
2021/09/30 00:07:19;;;;;;;7.18;3.90;;;6.00;99.90;;;;;;4379356;32;20156;-65
2021/09/30 00:09:47;;;;;;;6.90;4.12;;;6.00;99.90;;;;;;4366801;32;20097;-65
2021/09/30 00:12:18;;;;;;;7.87;3.72;;;6.00;99.90;;;;;;4379147;32;20061;-65
2021/09/30 00:36:12;;;;;;;6.07;3.80;;;5.80;99.90;;;;;;4378950;32;20496;-65
2021/09/30 00:51:50;;;;;;;5.78;4.00;;;5.60;99.90;;;;;;4406606;32;20076;-67
2021/09/30 01:28:40;;;;;;;9.05;4.25;;;5.90;99.90;;;;;;4406258;32;20075;-64
2021/09/30 02:39:30;;;;;;;10.48;4.75;;;6.20;99.90;;;;;;4391858;32;20467;-66
2021/09/30 02:58:38;;;;;;;10.25;5.22;;;6.30;99.90;;;;;;4380957;32;20165;-66
2021/09/30 03:01:19;;;;;;;7.93;4.00;;;6.40;99.90;;;;;;4354599;32;20077;-64
2021/09/30 03:03:46;;;;;;;8.95;4.85;;;6.50;99.90;;;;;;4366524;32;20147;-64
2021/09/30 03:06:13;;;;;;;9.20;4.75;;;6.60;99.90;;;;;;4366309;32;20497;-65
2021/09/30 03:08:47;;;;;;;7.80;4.70;;;6.60;99.90;;;;;;4353854;32;20097;-66
2021/09/30 03:11:14;;;;;;;8.98;5.10;;;6.60;99.90;;;;;;4355493;32;20054;-65
2021/09/30 03:13:42;;;;;;;11.48;6.20;;;6.60;99.90;;;;;;4391448;32;20495;-65
2021/09/30 03:16:14;;;;;;;11.15;5.30;;;6.60;99.90;;;;;;4384240;32;20136;-65
2021/09/30 03:23:36;;;;;;;11.63;4.93;;;6.70;99.90;;;;;;4378148;32;20484;-66
2021/09/30 03:26:03;;;;;;;10.35;5.28;;;6.70;99.90;;;;;;4353708;32;20093;-66
2021/09/30 03:28:30;;;;;;;13.93;5.53;;;6.70;99.90;;;;;;4365974;32;20073;-66
2021/09/30 03:30:58;;;;;;;13.73;5.75;;;6.70;99.90;;;;;;4378998;32;20073;-66
2021/09/30 03:33:28;;;;;;;13.43;5.85;;;6.80;99.90;;;;;;4380620;32;20074;-64
2021/09/30 03:35:55;;;;;;;17.67;6.80;;;6.90;99.90;;;;;;4382599;32;20528;-65
2021/09/30 03:38:22;;;;;;;12.45;5.57;;;6.90;99.90;;;;;;4378094;32;20153;-65
2021/09/30 03:40:49;;;;;;;15.68;6.65;;;7.00;99.90;;;;;;4366148;32;20155;-65
2021/09/30 03:43:15;;;;;;;18.67;6.37;;;7.10;99.90;;;;;;4365764;32;20485;-65
2021/09/30 03:45:45;;;;;;;11.35;6.28;;;7.10;99.90;;;;;;4366108;32;20074;-65
2021/09/30 03:48:11;;;;;;;16.25;6.50;;;7.20;99.90;;;;;;4390634;32;20153;-65
2021/09/30 03:50:47;;;;;;;13.20;6.65;;;7.20;99.90;;;;;;4392526;32;20089;-64
2021/09/30 04:01:26;;;;;;;26.05;9.75;;;7.40;99.90;;;;;;4380169;32;20112;-65
2021/09/30 04:03:52;;;;;;;25.73;10.13;;;7.60;99.90;;;;;;4390597;32;20076;-65
2021/09/30 04:06:19;;;;;;;27.60;9.57;;;7.80;99.90;;;;;;4390914;32;20083;-64
2021/09/30 04:08:45;;;;;;;25.40;9.65;;;7.80;99.90;;;;;;4391624;32;20086;-66
2021/09/30 04:11:12;;;;;;;26.33;10.32;;;7.80;99.90;;;;;;4378349;32;20560;-65
2021/09/30 04:13:38;;;;;;;20.75;10.15;;;7.70;99.90;;;;;;4391262;32;20099;-66
2021/09/30 04:16:04;;;;;;;26.27;10.30;;;7.70;99.90;;;;;;4377945;32;20077;-66
2021/09/30 04:18:31;;;;;;;25.20;9.48;;;7.70;99.90;;;;;;4390712;32;20088;-64
2021/09/30 04:20:57;;;;;;;22.08;8.80;;;7.80;99.90;;;;;;4390121;32;20538;-65
2021/09/30 04:23:23;;;;;;;27.75;7.95;;;7.80;99.90;;;;;;4366002;32;20153;-65
2021/09/30 04:25:49;;;;;;;19.73;8.45;;;7.70;99.90;;;;;;4390270;32;20515;-65
2021/09/30 04:28:18;;;;;;;14.70;7.70;;;7.70;99.90;;;;;;4377663;32;20093;-66
2021/09/30 04:30:44;;;;;;;21.73;8.13;;;7.80;99.90;;;;;;4378239;32;20077;-65
2021/09/30 04:33:10;;;;;;;15.75;6.62;;;7.70;99.90;;;;;;4377664;32;20081;-65
2021/09/30 04:35:36;;;;;;;14.25;6.47;;;7.70;99.90;;;;;;4390382;32;20077;-66
2021/09/30 04:38:08;;;;;;;15.60;6.40;;;7.70;99.90;;;;;;4389813;32;20070;-65
2021/09/30 04:40:34;;;;;;;17.30;6.57;;;7.70;99.90;;;;;;4390286;32;20074;-66
2021/09/30 04:43:01;;;;;;;13.10;6.25;;;7.70;99.90;;;;;;4377096;32;20499;-65
2021/09/30 04:45:28;;;;;;;12.82;6.30;;;7.70;99.90;;;;;;4366241;32;20107;-64
2021/09/30 04:47:54;;;;;;;14.90;5.60;;;7.90;99.90;;;;;;4377335;32;20088;-66
2021/09/30 04:50:20;;;;;;;11.98;5.40;;;7.90;99.90;;;;;;4365133;32;20184;-64
2021/09/30 04:52:47;;;;;;;14.57;5.45;;;8.00;99.90;;;;;;4390589;32;20073;-64
2021/09/30 04:55:13;;;;;;;10.52;5.32;;;8.00;99.90;;;;;;4390270;32;20239;-66
2021/09/30 04:57:39;;;;;;;14.40;5.95;;;8.10;99.90;;;;;;4365248;32;20171;-66
2021/09/30 05:00:09;;;;;;;14.15;5.57;;;8.30;99.90;;;;;;4377657;32;20070;-66
2021/09/30 05:02:35;;;;;;;12.50;7.32;;;10.60;99.90;;;;;;4389983;32;20522;-66
2021/09/30 05:05:01;;;;;;;18.00;7.10;;;11.60;99.90;;;;;;4377631;32;20101;-65
2021/09/30 05:07:27;;;;;;;14.60;7.00;;;11.90;98.70;;;;;;4389740;32;20078;-66
2021/09/30 05:09:54;;;;;;;25.00;9.18;;;12.30;96.10;;;;;;4391239;32;20129;-66
2021/09/30 05:12:21;;;;;;;24.60;10.68;;;12.40;94.60;;;;;;4376951;32;20077;-66
2021/09/30 05:14:48;;;;;;;14.45;7.72;;;12.40;94.60;;;;;;4377812;32;20106;-65
2021/09/30 05:17:15;;;;;;;13.82;6.72;;;12.20;95.10;;;;;;4354695;32;20138;-65
2021/09/30 05:19:41;;;;;;;10.77;5.43;;;12.10;94.30;;;;;;4398392;32;20074;-65
2021/09/30 05:22:07;;;;;;;12.73;4.85;;;12.10;95.10;;;;;;4383280;32;20079;-65
2021/09/30 05:24:33;;;;;;;13.88;5.43;;;12.50;92.60;;;;;;4395672;32;20050;-66
2021/09/30 05:26:59;;;;;;;10.00;5.40;;;12.30;92.80;;;;;;4377305;32;20073;-65
2021/09/30 05:29:26;;;;;;;10.65;5.22;;;12.80;89.30;;;;;;4391197;32;20078;-65
2021/09/30 05:31:52;;;;;;;12.10;5.10;;;13.30;86.00;;;;;;4389739;32;20169;-65
2021/09/30 05:34:18;;;;;;;9.32;4.60;;;13.40;80.60;;;;;;4391921;32;20504;-65
2021/09/30 05:36:44;;;;;;;7.25;4.30;;;12.50;89.60;;;;;;4379955;32;20077;-65
2021/09/30 05:39:10;;;;;;;6.90;4.37;;;12.40;89.50;;;;;;4379631;32;20159;-66
2021/09/30 05:41:37;;;;;;;7.30;4.25;;;12.20;90.10;;;;;;4379923;32;20548;-65
2021/09/30 05:44:10;;;;;;;8.90;3.80;;;12.80;85.90;;;;;;4367582;32;20081;-67
2021/09/30 05:46:45;;;;;;;4.87;3.28;;;12.70;83.30;;;;;;4381087;32;20081;-65
2021/09/30 05:49:11;;;;;;;6.70;3.72;;;13.00;81.20;;;;;;4368981;32;20520;-65
2021/09/30 05:51:38;;;;;;;5.35;3.40;;;13.10;77.80;;;;;;4379539;32;20181;-65
2021/09/30 05:54:05;;;;;;;4.35;2.72;;;13.40;74.40;;;;;;4367411;32;20073;-66
2021/09/30 05:56:31;;;;;;;5.40;2.90;;;13.70;75.10;;;;;;4391920;32;20157;-64
2021/09/30 05:58:57;;;;;;;6.15;3.30;;;14.10;72.20;;;;;;4392145;32;20125;-65
2021/09/30 06:14:45;;;;;;;4.37;2.90;;;10.90;90.00;;;;;;4366848;32;20085;-64
2021/09/30 06:17:11;;;;;;;4.03;2.65;;;11.10;91.60;;;;;;4367893;32;20087;-66
2021/09/30 06:19:38;;;;;;;4.65;2.75;;;11.60;86.80;;;;;;4366488;32;20089;-64
2021/09/30 06:22:07;;;;;;;3.53;2.35;;;10.60;84.50;;;;;;4379804;32;20120;-66
2021/09/30 06:24:33;;;;;;;4.50;2.70;;;10.70;84.90;;;;;;4379783;32;20085;-65
2021/09/30 06:27:01;;;;;;;4.32;2.90;;;10.30;88.70;;;;;;4354350;32;20079;-65
2021/09/30 06:29:27;;;;;;;4.37;2.17;;;10.10;87.60;;;;;;4354441;32;20100;-65
2021/09/30 06:31:54;;;;;;;4.65;2.90;;;10.10;86.00;;;;;;4366886;32;20077;-63
2021/09/30 06:34:22;;;;;;;3.67;2.30;;;10.40;86.30;;;;;;4367107;32;20082;-65
2021/09/30 06:36:49;;;;;;;2.65;2.15;;;10.70;81.10;;;;;;4379022;32;20062;-64
2021/09/30 06:39:15;;;;;;;3.65;2.40;;;10.60;82.00;;;;;;4378937;32;20523;-65
2021/09/30 06:41:41;;;;;;;5.15;2.45;;;10.70;79.00;;;;;;4366631;32;20502;-66
2021/09/30 06:44:07;;;;;;;4.93;2.40;;;10.60;78.70;;;;;;4391801;32;20236;-63
2021/09/30 06:46:34;;;;;;;3.62;2.42;;;10.20;81.00;;;;;;4366830;32;20074;-65
2021/09/30 06:49:00;;;;;;;3.67;2.40;;;10.40;82.60;;;;;;4391273;32;20090;-64
2021/09/30 06:51:26;;;;;;;4.20;2.60;;;10.10;82.60;;;;;;4391845;32;20085;-65
2021/09/30 06:53:52;;;;;;;4.10;2.62;;;10.40;80.60;;;;;;4379583;32;20074;-67
2021/09/30 06:56:20;;;;;;;3.05;2.33;;;11.00;78.90;;;;;;4392771;32;20529;-66
2021/09/30 06:58:47;;;;;;;3.67;2.50;;;11.20;76.30;;;;;;4366975;32;20082;-65
2021/09/30 07:01:16;;;;;;;4.55;2.60;;;10.70;77.50;;;;;;4366606;32;20085;-65
2021/09/30 07:03:43;;;;;;;3.62;2.40;;;10.20;79.70;;;;;;4379182;32;20062;-65
2021/09/30 07:06:10;;;;;;;4.12;2.50;;;10.50;77.10;;;;;;4367199;32;20139;-65
2021/09/30 07:08:36;;;;;;;3.00;2.08;;;10.80;75.10;;;;;;4354109;32;20110;-67
2021/09/30 07:11:03;;;;;;;3.83;2.78;;;11.30;72.50;;;;;;4378850;32;20452;-65
2021/09/30 07:13:30;;;;;;;3.95;2.58;;;12.00;71.00;;;;;;4378742;32;20166;-65
2021/09/30 07:15:56;;;;;;;3.12;2.45;;;11.60;70.80;;;;;;4366335;32;20157;-65
2021/09/30 07:18:22;;;;;;;3.72;2.47;;;12.10;73.30;;;;;;4371930;32;20732;-69
2021/09/30 07:21:00;;;;;;;3.20;2.30;;;11.20;69.90;;;;;;4383465;32;20154;-68
2021/09/30 07:26:07;;;;;;;4.28;2.53;;;11.00;73.50;;;;;;3839796;37;20062;-69
2021/09/30 07:28:34;;;;;;;3.22;2.00;;;11.30;72.20;;;;;;4411271;32;20069;-67
2021/09/30 07:31:00;;;;;;;4.07;2.25;;;11.50;68.70;;;;;;4373729;32;20069;-66
2021/09/30 07:33:26;;;;;;;6.30;2.33;;;11.40;69.50;;;;;;4380972;32;20153;-65
2021/09/30 07:35:52;;;;;;;3.60;2.40;;;11.00;71.30;;;;;;4404657;32;20081;-66
2021/09/30 07:38:19;;;;;;;4.10;2.42;;;10.90;71.70;;;;;;4388460;32;20141;-65
2021/09/30 07:40:45;;;;;;;3.90;2.40;;;11.30;73.00;;;;;;4386977;32;20069;-63
2021/09/30 07:43:11;;;;;;;3.67;2.30;;;10.80;73.90;;;;;;4396291;32;20090;-65
2021/09/30 07:45:38;;;;;;;3.37;2.17;;;10.60;74.60;;;;;;4376713;32;20089;-62
2021/09/30 07:48:05;;;;;;;5.47;2.80;;;10.50;77.20;;;;;;4385873;32;20086;-64
2021/09/30 07:50:33;;;;;;;2.60;1.90;;;10.30;75.50;;;;;;4375370;32;20084;-64
2021/09/30 07:52:59;;;;;;;3.62;2.53;;;10.30;75.60;;;;;;4387664;32;20532;-65
2021/09/30 07:55:26;;;;;;;2.62;2.20;;;10.80;74.00;;;;;;4389508;32;20086;-65
2021/09/30 07:57:52;;;;;;;8.48;3.20;;;11.00;72.50;;;;;;4380109;32;20080;-64
2021/09/30 08:00:18;;;;;;;5.47;2.40;;;11.50;71.40;;;;;;4378874;32;20166;-63
2021/09/30 08:02:45;;;;;;;3.78;2.03;;;12.10;70.40;;;;;;4363167;32;20074;-65
2021/09/30 08:05:11;;;;;;;4.87;2.30;;;12.40;66.00;;;;;;4376930;32;20065;-65
2021/09/30 08:07:37;;;;;;;4.43;2.33;;;12.40;64.30;;;;;;4374074;32;20527;-64
2021/09/30 08:10:05;;;;;;;3.75;2.20;;;12.60;62.90;;;;;;4379945;32;20081;-67
2021/09/30 08:12:31;;;;;;;5.90;3.45;;;12.20;64.30;;;;;;4384695;32;20552;-65
2021/09/30 08:14:57;;;;;;;4.40;2.65;;;11.80;65.40;;;;;;4384050;32;20483;-64
2021/09/30 08:17:23;;;;;;;5.37;2.60;;;11.90;67.30;;;;;;4381053;32;20110;-63
2021/09/30 08:19:49;;;;;;;3.83;2.50;;;12.10;65.70;;;;;;4399664;32;20104;-65
2021/09/30 08:22:39;;;;;;;4.22;2.58;;;11.60;67.00;;;;;;4387990;32;20092;-68
2021/09/30 08:25:06;;;;;;;3.97;2.55;;;11.20;70.00;;;;;;4392556;32;20074;-64
2021/09/30 08:27:32;;;;;;;4.50;2.70;;;11.00;73.20;;;;;;4381749;32;20479;-64
2021/09/30 08:29:59;;;;;;;3.40;2.10;;;11.30;72.80;;;;;;4381779;32;20089;-65
2021/09/30 08:32:25;;;;;;;2.83;2.08;;;11.50;70.20;;;;;;4384374;32;20050;-64
2021/09/30 08:34:51;;;;;;;3.55;2.03;;;11.50;70.80;;;;;;4389270;32;20081;-66
2021/09/30 08:37:17;;;;;;;3.25;2.37;;;11.90;67.50;;;;;;4387359;32;20247;-65
2021/09/30 08:39:44;;;;;;;4.37;2.28;;;12.10;68.00;;;;;;4385565;32;20069;-64
2021/09/30 08:42:10;;;;;;;5.50;2.28;;;12.20;65.10;;;;;;4371517;32;20464;-68
2021/09/30 08:44:36;;;;;;;7.30;3.55;;;12.70;64.60;;;;;;4364373;32;20082;-68
2021/09/30 08:47:03;;;;;;;5.00;2.58;;;11.90;67.30;;;;;;4360025;32;20078;-65
2021/09/30 08:49:30;;;;;;;5.97;2.97;;;11.20;72.10;;;;;;4357469;32;20223;-67
2021/09/30 08:51:56;;;;;;;5.85;3.08;;;11.20;73.70;;;;;;4354393;32;20065;-65
2021/09/30 08:54:23;;;;;;;5.37;2.83;;;11.10;73.00;;;;;;4352767;32;20066;-65
2021/09/30 08:56:49;;;;;;;9.50;4.90;;;10.90;73.90;;;;;;4379331;32;20169;-65
2021/09/30 08:59:27;;;;;;;6.80;3.47;;;11.10;72.60;;;;;;4388365;32;20073;-66
2021/09/30 09:02:23;;;;;;;6.80;3.65;;;11.20;71.70;;;;;;4361259;32;20493;-70
2021/09/30 09:04:57;;;;;;;3.90;2.70;;;11.20;70.60;;;;;;4367856;32;20085;-65
2021/09/30 09:07:28;;;;;;;5.03;2.58;;;11.20;69.80;;;;;;4383133;32;20084;-69
2021/09/30 09:09:56;;;;;;;4.00;2.62;;;11.50;68.70;;;;;;4361149;32;20081;-64
2021/09/30 09:12:23;;;;;;;4.05;2.40;;;11.50;68.50;;;;;;4362692;32;20125;-63
2021/09/30 09:14:49;;;;;;;5.43;2.28;;;11.40;67.10;;;;;;4366394;32;20151;-67
2021/09/30 09:17:18;;;;;;;4.93;2.83;;;11.50;68.80;;;;;;4374567;32;20584;-68
2021/09/30 09:19:56;;;;;;;4.80;2.78;;;11.30;71.40;;;;;;4361793;32;20151;-66
2021/09/30 09:22:26;;;;;;;4.53;2.25;;;11.20;71.60;;;;;;4363116;32;20494;-68
2021/09/30 09:25:16;;;;;;;4.53;2.37;;;11.10;71.30;;;;;;4360157;32;20098;-71
2021/09/30 09:27:55;;;;;;;4.30;2.40;;;11.10;71.10;;;;;;4375884;32;20464;-66
2021/09/30 09:30:35;;;;;;;7.15;2.78;;;11.10;70.50;;;;;;4364827;32;20073;-66
2021/09/30 09:33:05;;;;;;;4.43;2.60;;;11.20;70.60;;;;;;4376460;32;20169;-66
2021/09/30 09:36:23;;;;;;;4.40;2.53;;;11.30;69.30;;;;;;4374435;32;20098;-63
2021/09/30 09:38:55;;;;;;;4.62;2.55;;;12.60;64.70;;;;;;4378694;32;20081;-65
2021/09/30 09:41:30;;;;;;;3.78;2.17;;;14.00;59.20;;;;;;4339011;32;20094;-64
2021/09/30 09:43:57;;;;;;;3.03;2.40;;;13.10;61.20;;;;;;4364309;32;20093;-65
2021/09/30 09:46:30;;;;;;;4.85;2.60;;;13.10;62.10;;;;;;4378961;32;20094;-64
2021/09/30 09:49:08;;;;;;;3.95;2.47;;;13.00;62.00;;;;;;4375730;32;20068;-64
2021/09/30 09:51:45;;;;;;;5.60;3.30;;;13.50;60.40;;;;;;4364099;32;20104;-71
2021/09/30 09:54:20;;;;;;;5.20;3.00;;;12.10;64.20;;;;;;4361510;32;20133;-66
2021/09/30 09:56:47;;;;;;;5.35;2.85;;;11.30;68.40;;;;;;4362806;32;20063;-66
2021/09/30 09:59:27;;;;;;;5.53;3.22;;;11.20;70.40;;;;;;4364529;32;20074;-67
2021/09/30 10:01:54;;;;;;;4.95;2.45;;;11.10;70.50;;;;;;4355447;32;20062;-64
2021/09/30 10:04:21;;;;;;;6.03;2.75;;;11.10;70.80;;;;;;4362281;32;20070;-66
2021/09/30 10:06:47;;;;;;;5.00;2.50;;;11.20;71.90;;;;;;4374976;32;20075;-66
2021/09/30 10:09:14;;;;;;;5.35;2.67;;;11.00;73.70;;;;;;4364711;32;20076;-67
2021/09/30 10:11:41;;;;;;;4.82;3.20;;;10.90;73.30;;;;;;4352508;32;20087;-66
2021/09/30 10:14:08;;;;;;;3.70;2.60;;;10.90;73.40;;;;;;4351328;32;20078;-68
2021/09/30 10:17:47;;;;;;;6.82;2.67;;;10.90;73.90;;;;;;3826030;37;19958;-68
2021/09/30 10:20:14;;;;;;;3.47;2.25;;;11.00;73.60;;;;;;4367476;32;20081;-63
2021/09/30 10:22:41;;;;;;;6.78;2.47;;;11.00;72.50;;;;;;4361910;32;20074;-71
2021/09/30 10:25:08;;;;;;;3.87;2.35;;;10.90;73.60;;;;;;4351829;32;20066;-67
2021/09/30 10:27:36;;;;;;;3.70;2.12;;;11.00;73.20;;;;;;4361022;32;20133;-72
2021/09/30 10:30:02;;;;;;;5.30;2.75;;;11.00;75.30;;;;;;4359821;32;20088;-73
2021/09/30 10:32:29;;;;;;;4.10;2.45;;;11.00;74.40;;;;;;4336765;32;20116;-69
2021/09/30 10:35:00;;;;;;;3.47;2.22;;;11.30;73.40;;;;;;4356203;32;20141;-67
2021/09/30 10:37:31;;;;;;;3.78;2.78;;;12.20;70.20;;;;;;4361497;32;20500;-66
2021/09/30 10:40:19;;;;;;;3.45;2.28;;;12.50;67.70;;;;;;4360170;32;20133;-71
2021/09/30 10:42:56;;;;;;;4.70;2.78;;;12.50;67.50;;;;;;4356725;32;20142;-68
2021/09/30 10:45:39;;;;;;;3.90;2.33;;;12.20;69.50;;;;;;4361504;32;20142;-69
2021/09/30 10:48:30;;;;;;;4.40;2.78;;;11.90;70.70;;;;;;4368665;32;20176;-69
2021/09/30 10:51:05;;;;;;;4.68;2.80;;;12.30;68.90;;;;;;4373633;32;20484;-68
2021/09/30 10:53:47;;;;;;;4.35;2.92;;;12.50;68.40;;;;;;4379354;32;20162;-71
2021/09/30 10:56:33;;;;;;;4.95;2.95;;;12.30;68.70;;;;;;4388961;32;20092;-70
2021/09/30 10:59:25;;;;;;;6.50;3.30;;;12.40;69.50;;;;;;4388378;32;20178;-69
2021/09/30 11:01:52;;;;;;;5.72;2.87;;;12.80;68.50;;;;;;4363528;32;20456;-70
2021/09/30 11:04:19;;;;;;;4.78;3.00;;;12.80;66.00;;;;;;4370000;32;20062;-71
2021/09/30 11:07:17;;;;;;;3.22;2.50;;;12.50;65.50;;;;;;4367500;32;20065;-70
2021/09/30 11:10:21;;;;;;;4.37;2.92;;;12.10;67.10;;;;;;4345854;32;20137;-68
2021/09/30 11:13:22;;;;;;;6.30;3.90;;;12.20;68.80;;;;;;4367732;32;20077;-72
2021/09/30 11:16:17;;;;;;;4.12;3.00;;;12.20;68.90;;;;;;4372310;32;20073;-71
2021/09/30 11:18:55;;;;;;;6.68;2.97;;;11.70;72.80;;;;;;4357843;32;20058;-73
2021/09/30 11:21:35;;;;;;;7.25;3.08;;;11.80;77.20;;;;;;4368811;32;20081;-72
2021/09/30 11:24:20;;;;;;;7.32;2.80;;;11.60;76.70;;;;;;4367127;32;20534;-72
2021/09/30 11:26:51;;;;;;;5.75;2.80;;;11.50;77.40;;;;;;4361410;32;20096;-73
2021/09/30 11:29:25;;;;;;;6.20;3.12;;;11.50;76.40;;;;;;4358533;32;20247;-71
2021/09/30 11:31:54;;;;;;;9.15;3.17;;;11.60;78.00;;;;;;4349581;32;20089;-72
2021/09/30 11:34:35;;;;;;;3.45;2.15;;;11.20;77.40;;;;;;4358015;32;20181;-68
2021/09/30 11:37:25;;;;;;;5.07;2.55;;;11.20;77.50;;;;;;4356521;32;20074;-69
2021/09/30 11:39:54;;;;;;;4.55;2.35;;;11.30;78.20;;;;;;4348425;32;20086;-67
2021/09/30 11:42:23;;;;;;;5.15;2.50;;;11.30;79.20;;;;;;4349323;32;20125;-66
2021/09/30 11:45:02;;;;;;;6.00;2.30;;;11.10;80.80;;;;;;4358339;32;20109;-67
2021/09/30 11:47:30;;;;;;;8.10;3.30;;;11.10;83.30;;;;;;4352892;32;20097;-67
2021/09/30 11:49:57;;;;;;;5.97;2.50;;;10.90;83.60;;;;;;4333980;32;20174;-66
2021/09/30 11:52:24;;;;;;;5.95;2.72;;;11.00;83.70;;;;;;4360626;32;20105;-67
2021/09/30 11:54:50;;;;;;;3.85;2.40;;;10.80;84.20;;;;;;4343919;32;20101;-65
2021/09/30 11:57:25;;;;;;;3.97;2.10;;;10.90;85.00;;;;;;4348700;32;20066;-66
2021/09/30 11:59:52;;;;;;;3.62;2.47;;;11.00;84.70;;;;;;4370621;32;20149;-67
2021/09/30 12:02:18;;;;;;;4.62;2.33;;;10.80;86.00;;;;;;4338063;32;20086;-68
2021/09/30 12:04:47;;;;;;;5.65;2.72;;;10.70;87.60;;;;;;4352738;32;20066;-67
2021/09/30 12:07:21;;;;;;;3.92;2.50;;;10.60;88.20;;;;;;4350174;32;20063;-68
2021/09/30 12:09:52;;;;;;;5.30;2.42;;;10.70;89.20;;;;;;4333792;32;20216;-70
2021/09/30 12:12:19;;;;;;;5.32;2.78;;;10.70;90.60;;;;;;4335644;32;20158;-70
2021/09/30 12:14:52;;;;;;;4.72;2.45;;;10.80;90.40;;;;;;4350294;32;20110;-66
2021/09/30 12:17:20;;;;;;;3.70;2.55;;;10.80;90.90;;;;;;4335079;32;20101;-69
2021/09/30 12:19:50;;;;;;;4.53;2.45;;;10.90;91.70;;;;;;4338544;32;20249;-65
2021/09/30 12:22:18;;;;;;;5.68;3.15;;;11.10;91.90;;;;;;4347935;32;20097;-66
2021/09/30 12:24:49;;;;;;;3.85;2.80;;;10.90;91.50;;;;;;4340252;32;20148;-62
2021/09/30 12:27:16;;;;;;;5.93;3.55;;;10.70;93.00;;;;;;4358241;32;20162;-63
2021/09/30 12:29:48;;;;;;;5.97;3.12;;;10.80;92.70;;;;;;4347586;32;20066;-63
2021/09/30 12:32:18;;;;;;;5.90;3.47;;;10.80;91.20;;;;;;4342066;32;20074;-64
2021/09/30 12:34:55;;;;;;;5.35;3.33;;;10.70;91.10;;;;;;4354146;32;20074;-64
2021/09/30 12:37:45;;;;;;;6.93;3.50;;;10.80;92.00;;;;;;4330326;32;20146;-63
2021/09/30 12:40:26;;;;;;;3.97;2.72;;;10.80;92.10;;;;;;4344259;32;20097;-66
2021/09/30 12:42:59;;;;;;;4.03;2.42;;;11.00;91.10;;;;;;4351794;32;20059;-62
2021/09/30 12:45:31;;;;;;;6.00;3.00;;;10.90;92.00;;;;;;4358226;32;20146;-65
2021/09/30 12:48:10;;;;;;;4.97;2.72;;;10.80;92.40;;;;;;4340974;32;20170;-65
2021/09/30 12:50:42;;;;;;;5.30;3.00;;;10.90;93.00;;;;;;4359804;32;20283;-66
2021/09/30 12:53:09;;;;;;;6.10;2.83;;;10.80;93.70;;;;;;4357732;32;20110;-64
2021/09/30 12:55:36;;;;;;;4.82;2.70;;;11.00;94.40;;;;;;4344101;32;20523;-66
2021/09/30 12:58:02;;;;;;;6.45;3.60;;;10.80;94.60;;;;;;4344588;32;20444;-66
2021/09/30 13:00:36;;;;;;;6.85;3.50;;;10.80;94.50;;;;;;4345678;32;20085;-65
2021/09/30 13:03:16;;;;;;;6.57;3.20;;;10.80;95.20;;;;;;4329749;32;20063;-63
2021/09/30 13:05:46;;;;;;;7.75;3.42;;;10.80;95.80;;;;;;4308159;32;20093;-63
2021/09/30 13:08:13;;;;;;;3.78;2.60;;;10.70;96.20;;;;;;4365938;32;20076;-64
2021/09/30 13:10:39;;;;;;;5.15;2.95;;;10.60;96.00;;;;;;4346311;32;20097;-65
2021/09/30 13:13:15;;;;;;;6.55;2.90;;;10.70;96.50;;;;;;4359164;32;20169;-67
2021/09/30 13:15:46;;;;;;;5.72;3.00;;;10.70;97.10;;;;;;4328386;32;20541;-64
2021/09/30 13:18:14;;;;;;;4.50;2.95;;;10.70;97.00;;;;;;4339113;32;20109;-64
2021/09/30 13:20:42;;;;;;;4.87;3.17;;;10.70;97.20;;;;;;4332910;32;20087;-65
2021/09/30 13:23:09;;;;;;;7.15;3.20;;;10.80;97.00;;;;;;4345509;32;20066;-64
2021/09/30 13:25:36;;;;;;;5.32;3.10;;;10.70;96.60;;;;;;4340937;32;20097;-64
2021/09/30 13:28:03;;;;;;;5.72;3.28;;;10.70;95.80;;;;;;4356219;32;20484;-65
2021/09/30 13:30:32;;;;;;;6.85;2.97;;;10.60;95.00;;;;;;4350133;32;20066;-65
2021/09/30 13:33:00;;;;;;;4.68;2.80;;;10.60;95.80;;;;;;4352978;32;20076;-64
2021/09/30 13:35:32;;;;;;;4.57;2.87;;;10.60;95.00;;;;;;4361459;32;20074;-65
2021/09/30 13:37:59;;;;;;;7.05;3.40;;;10.60;95.50;;;;;;4358646;32;20279;-64
2021/09/30 13:40:25;;;;;;;7.93;3.60;;;10.50;94.50;;;;;;4331716;32;20066;-66
2021/09/30 13:42:52;;;;;;;5.45;3.17;;;10.60;95.40;;;;;;4365220;32;20212;-65
2021/09/30 13:45:19;;;;;;;5.55;3.12;;;10.60;94.90;;;;;;4368002;32;20063;-62
2021/09/30 13:47:46;;;;;;;7.40;3.42;;;10.50;94.90;;;;;;4366570;32;20477;-63
2021/09/30 13:50:18;;;;;;;5.15;2.83;;;10.50;95.30;;;;;;4326407;32;20133;-65
2021/09/30 13:52:46;;;;;;;6.18;2.92;;;10.60;95.20;;;;;;4350971;32;20070;-66
2021/09/30 13:55:13;;;;;;;5.40;2.87;;;10.40;94.00;;;;;;4344525;32;20078;-65
2021/09/30 13:57:39;;;;;;;5.93;3.00;;;10.40;94.30;;;;;;4348696;32;20516;-65
2021/09/30 14:00:08;;;;;;;5.82;3.10;;;10.40;94.10;;;;;;4361208;32;20097;-65
2021/09/30 14:02:35;;;;;;;6.03;2.80;;;10.40;93.90;;;;;;4337454;32;20090;-64
2021/09/30 14:05:03;;;;;;;6.18;2.87;;;10.40;93.80;;;;;;4340905;32;20135;-63
2021/09/30 14:07:30;;;;;;;5.28;2.30;;;10.30;94.40;;;;;;4348521;32;20078;-64
2021/09/30 14:09:58;;;;;;;9.43;3.03;;;10.40;95.30;;;;;;4354231;32;20176;-63
2021/09/30 14:12:25;;;;;;;4.32;2.87;;;10.30;95.80;;;;;;4344833;32;20101;-63
2021/09/30 14:14:51;;;;;;;4.78;2.95;;;10.30;95.50;;;;;;4360103;32;20058;-62
2021/09/30 14:17:17;;;;;;;6.18;2.92;;;10.30;95.70;;;;;;4343433;32;20085;-63
2021/09/30 14:19:44;;;;;;;3.62;2.62;;;10.20;96.70;;;;;;4341752;32;20070;-66
2021/09/30 14:22:10;;;;;;;6.35;3.25;;;10.30;97.40;;;;;;4357759;32;20089;-67
2021/09/30 14:24:36;;;;;;;6.10;3.95;;;10.20;97.70;;;;;;4357513;32;20117;-65
2021/09/30 14:27:04;;;;;;;7.18;3.28;;;10.20;98.60;;;;;;4344245;32;20075;-64
2021/09/30 14:29:30;;;;;;;6.15;3.60;;;10.20;99.60;;;;;;4343333;32;20097;-65
2021/09/30 14:31:57;;;;;;;7.57;4.05;;;10.20;99.90;;;;;;4345121;32;20496;-64
2021/09/30 14:34:23;;;;;;;9.80;4.07;;;10.20;99.80;;;;;;4356551;32;20569;-64
2021/09/30 14:36:49;;;;;;;7.82;4.40;;;10.20;99.90;;;;;;4356417;32;20078;-62
2021/09/30 14:39:15;;;;;;;8.43;4.45;;;10.20;99.90;;;;;;4344486;32;20190;-64
2021/09/30 14:41:43;;;;;;;11.68;4.53;;;10.10;99.90;;;;;;4329636;32;20094;-67
2021/09/30 14:44:09;;;;;;;6.90;4.43;;;10.10;99.90;;;;;;4358600;32;20138;-64
2021/09/30 14:46:36;;;;;;;11.80;4.50;;;10.10;99.90;;;;;;4361145;32;20152;-63
2021/09/30 14:49:02;;;;;;;7.40;4.28;;;10.10;99.90;;;;;;4359045;32;20116;-62
2021/09/30 14:51:28;;;;;;;6.57;4.12;;;10.10;99.90;;;;;;4358032;32;20059;-64
2021/09/30 14:53:54;;;;;;;7.30;4.68;;;10.10;99.90;;;;;;4346052;32;20166;-66
2021/09/30 14:56:21;;;;;;;12.02;4.45;;;10.10;99.90;;;;;;4345860;32;20151;-64
2021/09/30 14:58:47;;;;;;;7.93;3.53;;;10.00;99.90;;;;;;4340238;32;20501;-65
2021/09/30 15:01:14;;;;;;;8.82;3.95;;;9.90;99.90;;;;;;4343315;32;20066;-64
2021/09/30 15:03:40;;;;;;;9.15;3.85;;;9.90;99.90;;;;;;4356611;32;20528;-66
2021/09/30 15:06:13;;;;;;;6.25;4.00;;;9.80;99.90;;;;;;4338440;32;20407;-64
2021/09/30 15:08:39;;;;;;;6.82;4.10;;;9.80;99.90;;;;;;4348083;32;20488;-64
2021/09/30 15:11:06;;;;;;;7.00;4.18;;;9.80;99.90;;;;;;4364054;32;20085;-64
2021/09/30 15:13:32;;;;;;;8.57;4.10;;;9.80;99.90;;;;;;4359554;32;20146;-63
2021/09/30 15:16:00;;;;;;;8.43;3.90;;;9.80;99.90;;;;;;4335213;32;20237;-65
2021/09/30 15:18:39;;;;;;;5.43;3.33;;;9.80;99.90;;;;;;4363384;32;20093;-64
2021/09/30 15:23:55;;;;;;;6.65;3.30;;;9.80;99.90;;;;;;4366548;32;20578;-65
2021/09/30 15:26:21;;;;;;;9.15;3.60;;;9.80;99.90;;;;;;4352779;32;20062;-65
2021/09/30 15:28:48;;;;;;;8.05;3.65;;;9.80;99.90;;;;;;4362248;32;20086;-65
2021/09/30 15:31:14;;;;;;;5.95;3.12;;;9.70;99.90;;;;;;4359887;32;20558;-65
2021/09/30 15:33:40;;;;;;;8.85;3.37;;;9.80;99.90;;;;;;4347978;32;20098;-64
2021/09/30 15:36:09;;;;;;;5.95;3.53;;;9.70;99.90;;;;;;4323043;32;20077;-65
2021/09/30 15:38:37;;;;;;;8.10;4.10;;;9.70;99.90;;;;;;4348860;32;20500;-64
2021/09/30 15:41:03;;;;;;;6.90;3.80;;;9.70;99.90;;;;;;4349325;32;20185;-64
2021/09/30 15:43:32;;;;;;;9.00;2.65;;;9.70;99.90;;;;;;4349404;32;20082;-66
2021/09/30 15:46:01;;;;;;;5.10;2.42;;;9.60;99.90;;;;;;4324752;32;20166;-65
2021/09/30 15:48:28;;;;;;;5.90;2.92;;;9.70;99.90;;;;;;4337163;32;20094;-64
2021/09/30 15:50:55;;;;;;;6.20;3.60;;;9.70;99.90;;;;;;4327371;32;20456;-64
2021/09/30 15:53:21;;;;;;;5.75;2.83;;;9.80;99.90;;;;;;4325318;32;20156;-64
2021/09/30 15:55:48;;;;;;;6.53;2.80;;;9.70;99.90;;;;;;4336868;32;20171;-66
2021/09/30 15:58:14;;;;;;;6.40;2.90;;;9.60;99.90;;;;;;4362931;32;20112;-65
2021/09/30 16:00:41;;;;;;;5.62;3.40;;;9.60;99.90;;;;;;4349676;32;20158;-64
2021/09/30 16:03:07;;;;;;;5.93;3.95;;;9.70;99.90;;;;;;4349740;32;20527;-64
2021/09/30 16:05:34;;;;;;;6.07;3.42;;;9.60;99.90;;;;;;4336836;32;20086;-63